Port Huron, MI

10:16 AM EST on December 21, 2014 (GMT -0500)
Saint Clair County International | Change Station
CLOSE
Current Station
Airport
Location: Port Huron,
Elevation: 650 ft
Nearby Weather Stations

Elev 650 ft 42.91 °N, 82.53 °W | Updated 19 minutes ago

Mostly Cloudy
Mostly Cloudy
28 °F
Feels Like 28 °F
N
0
Wind Variable Wind from North

Today
High -- | Low -- °F
--% Chance of Precip.
Yesterday
High -- | Low -- °F
Precip. -- in
7:57 AM 4:58 PM
Waning Crescent, 0% visible
Pressure 30.31 in
Visibility 7.0 miles
Clouds Overcast 3700 ft
Dew Point 25 °F
Humidity 86%
Rainfall 0.00 in
Snow Depth Not available.
UV 0 out of 12
Pollen .10 out of 12
Air Quality Not available.
Flu Activity Not available.
METAR KPHN 211457Z AUTO 00000KT 7SM OVC037 M02/M04 A3031 RMK AO2

More Conditions Fewer Conditions

Pressure 30.31 in
Visibility 7.0 miles
Clouds Overcast 3700 ft
Dew Point 25 °F
Humidity 86%
Rainfall 0.00 in
Snow Depth Not available.
UV 0 out of 12
Pollen .10 out of 12
Air Quality Not available.
Flu Activity Not available.
METAR KPHN 211457Z AUTO 00000KT 7SM OVC037 M02/M04 A3031 RMK AO2

More Conditions Fewer Conditions

10-Day Weather Forecast

Almanac

Astronomy

Dec. 21, 2014 Rise Set
Actual Time
Civil Twilight
Nautical Twilight
Astronomical Twilight
Moon
Length of Visible Light
Length of Day
Tomorrow will be .
, % of the Moon is Illuminated

Today's Extremes

State Highs State Lows

Community

WunderPhotos

Upload Photos

1,779,408 photos uploaded!

WunderBlogs® & News

Nearby

Air Quality

  Air Quality AQ Index Pollutant
Not available.

Snow Depth

Station Depth Elevation

Earthquake Activity

City Distance Mag. Time & Date
Minimum magnitude displayed is 2.5.

Coastal Water Temperatures

Place Temperature

Nearby Weather Stations